createdAt,value
2023-06-04T00:00:25.918Z,60.74
2023-06-04T00:01:25.926Z,60.82
2023-06-04T00:02:26.002Z,60.85
2023-06-04T00:03:26.172Z,60.85
2023-06-04T00:04:25.891Z,60.71
2023-06-04T00:05:25.866Z,60.23
2023-06-04T00:06:25.865Z,60.23
2023-06-04T00:07:25.855Z,60.10
2023-06-04T00:08:25.868Z,60.71
2023-06-04T00:09:25.825Z,60.92
2023-06-04T00:10:25.811Z,60.85
2023-06-04T00:11:25.873Z,60.33
2023-06-04T00:12:25.834Z,60.10
2023-06-04T00:13:25.764Z,60.13
2023-06-04T00:14:25.820Z,60.03
2023-06-04T00:15:25.766Z,60.10
2023-06-04T00:16:25.828Z,60.21
2023-06-04T00:17:25.807Z,60.30
2023-06-04T00:18:25.734Z,60.00
2023-06-04T00:19:25.720Z,59.80
2023-06-04T00:20:25.709Z,60.13
2023-06-04T00:21:25.704Z,59.69
2023-06-04T00:22:25.652Z,60.21
2023-06-04T00:23:25.696Z,59.80
2023-06-04T00:24:25.705Z,59.59
2023-06-04T00:25:25.650Z,60.00
2023-06-04T00:26:25.611Z,59.69
2023-06-04T00:27:25.641Z,59.62
2023-06-04T00:28:25.634Z,59.80
2023-06-04T00:29:25.586Z,59.52
2023-06-04T00:30:25.637Z,59.39
2023-06-04T00:31:25.609Z,60.85
2023-06-04T00:32:25.665Z,59.89
2023-06-04T00:33:25.566Z,60.23
2023-06-04T00:34:25.576Z,60.44
2023-06-04T00:35:25.544Z,60.23
2023-06-04T00:36:25.548Z,60.13
2023-06-04T00:37:25.521Z,60.13
2023-06-04T00:38:25.527Z,60.46
2023-06-04T00:39:25.512Z,60.94
2023-06-04T00:40:25.483Z,60.13
2023-06-04T00:41:25.478Z,60.26
2023-06-04T00:42:25.495Z,60.16
2023-06-04T00:43:25.454Z,60.85
2023-06-04T00:44:25.424Z,60.26
2023-06-04T00:45:25.476Z,60.05
2023-06-04T00:46:25.521Z,60.13
2023-06-04T00:47:25.420Z,60.87
2023-06-04T00:48:25.421Z,61.08
2023-06-04T00:49:25.403Z,61.58
2023-06-04T00:50:25.371Z,60.87
2023-06-04T00:51:25.383Z,60.87
2023-06-04T00:52:25.366Z,61.38
2023-06-04T00:53:25.334Z,61.28
2023-06-04T00:54:25.351Z,61.79
2023-06-04T00:55:25.336Z,61.38
2023-06-04T00:56:25.282Z,62.30
2023-06-04T00:57:25.301Z,61.79
2023-06-04T00:58:25.300Z,62.40
2023-06-04T00:59:25.287Z,61.82
2023-06-04T01:00:25.260Z,61.92
2023-06-04T01:01:25.297Z,62.23
2023-06-04T01:02:25.241Z,61.61
2023-06-04T01:03:25.301Z,61.31
2023-06-04T01:04:25.229Z,61.72
2023-06-04T01:05:25.200Z,61.61
2023-06-04T01:06:26.195Z,61.00
2023-06-04T01:07:25.177Z,61.10
2023-06-04T01:08:25.181Z,60.28
2023-06-04T01:09:25.193Z,60.19
2023-06-04T01:10:25.163Z,60.49
2023-06-04T01:11:25.148Z,60.19
2023-06-04T01:12:25.150Z,59.44
2023-06-04T01:13:25.114Z,60.05
2023-06-04T01:14:25.094Z,59.75
2023-06-04T01:15:25.123Z,59.75
2023-06-04T01:16:25.131Z,60.05
2023-06-04T01:17:25.117Z,59.14
2023-06-04T01:18:25.085Z,59.55
2023-06-04T01:19:25.086Z,59.34
2023-06-04T01:20:25.047Z,59.23
2023-06-04T01:21:25.032Z,59.23
2023-06-04T01:22:25.070Z,59.34
2023-06-04T01:23:25.100Z,59.23
2023-06-04T01:24:24.971Z,59.23
2023-06-04T01:25:25.082Z,58.83
2023-06-04T01:26:24.965Z,59.14
2023-06-04T01:27:24.971Z,58.32
2023-06-04T01:28:24.970Z,58.22
2023-06-04T01:29:24.930Z,58.62
2023-06-04T01:30:25.929Z,58.52
2023-06-04T01:31:24.916Z,58.32
2023-06-04T01:32:24.956Z,58.60
2023-06-04T01:33:24.896Z,59.00
2023-06-04T01:34:24.887Z,59.03
2023-06-04T01:35:27.400Z,59.03
2023-06-04T01:36:24.872Z,58.39
2023-06-04T01:37:24.845Z,58.80
2023-06-04T01:38:24.855Z,58.70
2023-06-04T01:39:24.842Z,58.19
2023-06-04T01:40:24.823Z,58.50
2023-06-04T01:41:24.817Z,58.42
2023-06-04T01:42:24.825Z,58.83
2023-06-04T01:43:24.806Z,58.62
2023-06-04T01:44:24.761Z,58.83
2023-06-04T01:45:24.803Z,58.32
2023-06-04T01:46:24.773Z,58.83
2023-06-04T01:47:24.803Z,58.32
2023-06-04T01:48:24.731Z,59.44
2023-06-04T01:49:24.730Z,59.55
2023-06-04T01:50:24.692Z,59.55
2023-06-04T01:51:24.690Z,60.19
2023-06-04T01:52:24.717Z,59.57
2023-06-04T01:53:24.684Z,60.49
2023-06-04T01:54:24.640Z,60.72
2023-06-04T01:55:24.678Z,62.59
2023-06-04T01:56:24.672Z,61.98
2023-06-04T01:57:24.615Z,62.08
2023-06-04T01:58:24.639Z,63.00
2023-06-04T01:59:24.608Z,62.49
2023-06-04T02:00:24.592Z,63.51
2023-06-04T02:01:24.576Z,63.41
2023-06-04T02:02:24.612Z,62.70
2023-06-04T02:03:24.718Z,63.31
2023-06-04T02:04:24.547Z,62.21
2023-06-04T02:05:24.560Z,62.93
2023-06-04T02:06:24.508Z,63.06
2023-06-04T02:07:24.516Z,63.78
2023-06-04T02:08:24.509Z,63.17
2023-06-04T02:09:24.506Z,64.60
2023-06-04T02:10:24.485Z,63.47
2023-06-04T02:11:24.480Z,63.40
2023-06-04T02:12:24.495Z,64.01
2023-06-04T02:13:24.449Z,65.01
2023-06-04T02:14:24.460Z,63.91
2023-06-04T02:15:24.437Z,64.62
2023-06-04T02:16:24.439Z,64.83
2023-06-04T02:17:24.409Z,65.75
2023-06-04T02:18:24.405Z,65.78
2023-06-04T02:19:24.388Z,65.89
2023-06-04T02:20:24.376Z,65.68
2023-06-04T02:21:24.378Z,66.81
2023-06-04T02:22:24.338Z,65.68
2023-06-04T02:23:24.395Z,66.40
2023-06-04T02:24:24.348Z,65.99
2023-06-04T02:25:24.343Z,66.09
2023-06-04T02:26:24.291Z,66.74
2023-06-04T02:27:24.317Z,66.53
2023-06-04T02:28:24.296Z,67.25
2023-06-04T02:29:24.288Z,66.33
2023-06-04T02:30:24.277Z,65.71
2023-06-04T02:31:24.273Z,65.61
2023-06-04T02:32:24.269Z,65.81
2023-06-04T02:33:24.239Z,65.71
2023-06-04T02:34:24.239Z,66.60
2023-06-04T02:35:24.225Z,66.53
2023-06-04T02:36:24.220Z,66.33
2023-06-04T02:37:24.213Z,66.94
2023-06-04T02:38:25.176Z,65.30
2023-06-04T02:39:24.167Z,65.41
2023-06-04T02:40:24.214Z,65.61
2023-06-04T02:41:24.175Z,66.97
2023-06-04T02:42:24.110Z,66.16
2023-06-04T02:43:24.140Z,67.18
2023-06-04T02:44:25.631Z,66.87
2023-06-04T02:45:24.137Z,66.05
2023-06-04T02:46:24.152Z,67.62
2023-06-04T02:47:24.091Z,67.72
2023-06-04T02:48:24.098Z,67.32
2023-06-04T02:49:24.095Z,67.93
2023-06-04T02:50:24.032Z,68.13
2023-06-04T02:51:24.021Z,68.88
2023-06-04T02:52:24.061Z,69.16
2023-06-04T02:53:24.010Z,69.29
2023-06-04T02:54:24.020Z,69.37
2023-06-04T02:55:23.995Z,69.57
2023-06-04T02:56:23.977Z,69.81
2023-06-04T02:57:24.005Z,69.60
2023-06-04T02:58:23.988Z,70.66
2023-06-04T02:59:23.949Z,71.17
2023-06-04T03:00:23.947Z,71.51
2023-06-04T03:01:23.970Z,72.34
2023-06-04T03:02:23.958Z,72.55
2023-06-04T03:03:24.042Z,72.58
2023-06-04T03:04:23.910Z,72.78
2023-06-04T03:05:23.899Z,72.44
2023-06-04T03:06:23.895Z,72.55
2023-06-04T03:07:23.901Z,72.44
2023-06-04T03:08:23.888Z,73.19
2023-06-04T03:09:23.828Z,73.09
2023-06-04T03:10:23.855Z,74.02
2023-06-04T03:11:23.841Z,74.33
2023-06-04T03:12:23.805Z,74.43
2023-06-04T03:13:23.804Z,74.87
2023-06-04T03:14:23.825Z,75.80
2023-06-04T03:15:23.787Z,75.67
2023-06-04T03:16:23.801Z,76.18
2023-06-04T03:17:23.791Z,76.07
2023-06-04T03:18:23.776Z,76.14
2023-06-04T03:19:23.742Z,76.97
2023-06-04T03:20:23.718Z,76.69
2023-06-04T03:21:23.736Z,77.31
2023-06-04T03:22:23.732Z,76.18
2023-06-04T03:23:23.741Z,76.28
2023-06-04T03:24:23.670Z,75.80
2023-06-04T03:25:23.707Z,75.90
2023-06-04T03:26:23.674Z,77.14
2023-06-04T03:27:23.657Z,76.42
2023-06-04T03:28:23.685Z,76.62
2023-06-04T03:29:23.649Z,76.52
2023-06-04T03:30:23.619Z,76.52
2023-06-04T03:31:23.651Z,77.34
2023-06-04T03:32:23.636Z,77.55
2023-06-04T03:33:23.593Z,77.58
2023-06-04T03:34:23.617Z,77.89
2023-06-04T03:35:23.610Z,77.69
2023-06-04T03:36:23.561Z,77.58
2023-06-04T03:37:23.554Z,77.62
2023-06-04T03:38:23.601Z,77.93
2023-06-04T03:39:23.554Z,78.69
2023-06-04T03:40:23.515Z,78.17
2023-06-04T03:41:23.531Z,78.58
2023-06-04T03:42:23.496Z,78.96
2023-06-04T03:43:23.512Z,78.44
2023-06-04T03:44:23.540Z,78.44
2023-06-04T03:45:23.482Z,78.24
2023-06-04T03:46:23.523Z,78.48
2023-06-04T03:47:23.483Z,78.96
2023-06-04T03:48:23.473Z,79.10
2023-06-04T03:49:23.441Z,80.02
2023-06-04T03:50:23.448Z,80.02
2023-06-04T03:51:23.422Z,79.93
2023-06-04T03:52:23.448Z,80.44
2023-06-04T03:53:23.395Z,80.19
2023-06-04T03:54:23.383Z,79.47
2023-06-04T03:55:23.372Z,79.79
2023-06-04T03:56:23.400Z,79.13
2023-06-04T03:57:23.345Z,79.64
2023-06-04T03:58:23.357Z,79.44
2023-06-04T03:59:23.337Z,79.75
2023-06-04T04:00:23.307Z,79.75
2023-06-04T04:01:23.323Z,79.44
2023-06-04T04:02:23.466Z,80.05
2023-06-04T04:03:23.377Z,79.85
2023-06-04T04:04:23.326Z,79.03
2023-06-04T04:05:23.293Z,79.06
2023-06-04T04:06:23.270Z,79.68
2023-06-04T04:07:23.256Z,79.68
2023-06-04T04:08:23.278Z,79.99
2023-06-04T04:09:23.239Z,79.88
2023-06-04T04:10:23.195Z,80.19
2023-06-04T04:11:23.235Z,79.88
2023-06-04T04:12:24.247Z,79.68
2023-06-04T04:13:23.198Z,79.99
2023-06-04T04:14:23.216Z,80.05
2023-06-04T04:15:23.190Z,80.30
2023-06-04T04:16:23.156Z,80.05
2023-06-04T04:17:23.162Z,80.19
2023-06-04T04:18:23.206Z,80.05
2023-06-04T04:19:23.158Z,80.88
2023-06-04T04:20:23.105Z,79.71
2023-06-04T04:21:23.111Z,80.53
2023-06-04T04:22:23.082Z,79.50
2023-06-04T04:23:23.151Z,79.47
2023-06-04T04:24:23.103Z,78.96
2023-06-04T04:25:23.082Z,79.57
2023-06-04T04:26:23.060Z,79.33
2023-06-04T04:27:23.042Z,78.98
2023-06-04T04:28:23.065Z,79.60
2023-06-04T04:29:23.045Z,78.67
2023-06-04T04:30:23.030Z,79.87
2023-06-04T04:31:23.137Z,80.18
2023-06-04T04:32:23.065Z,79.87
2023-06-04T04:33:23.002Z,79.97
2023-06-04T04:34:22.996Z,79.36
2023-06-04T04:35:22.961Z,78.23
2023-06-04T04:36:24.655Z,77.68
2023-06-04T04:37:23.972Z,77.68
2023-06-04T04:38:22.968Z,77.47
2023-06-04T04:39:22.928Z,77.58
2023-06-04T04:40:22.927Z,77.17
2023-06-04T04:41:22.911Z,76.00
2023-06-04T04:42:22.912Z,76.10
2023-06-04T04:43:22.868Z,75.45
2023-06-04T04:44:22.889Z,75.24
2023-06-04T04:45:22.835Z,74.70
2023-06-04T04:46:22.935Z,75.11
2023-06-04T04:47:22.864Z,74.39
2023-06-04T04:48:22.794Z,73.78
2023-06-04T04:49:22.810Z,73.71
2023-06-04T04:50:22.817Z,74.49
2023-06-04T04:51:22.815Z,74.08
2023-06-04T04:52:22.778Z,73.98
2023-06-04T04:53:22.758Z,74.39
2023-06-04T04:54:22.763Z,73.78
2023-06-04T04:55:22.739Z,73.95
2023-06-04T04:56:22.732Z,74.29
2023-06-04T04:57:22.728Z,74.87
2023-06-04T04:58:22.758Z,73.74
2023-06-04T04:59:22.711Z,74.05
2023-06-04T05:00:22.671Z,74.05
2023-06-04T05:01:22.766Z,72.82
2023-06-04T05:02:22.680Z,72.48
2023-06-04T05:03:22.672Z,72.75
2023-06-04T05:04:22.735Z,72.96
2023-06-04T05:05:22.642Z,72.75
2023-06-04T05:06:22.600Z,72.21
2023-06-04T05:07:22.635Z,71.59
2023-06-04T05:08:22.659Z,71.59
2023-06-04T05:09:22.566Z,71.59
2023-06-04T05:10:22.597Z,71.15
2023-06-04T05:11:22.571Z,70.43
2023-06-04T05:12:22.531Z,69.21
2023-06-04T05:13:22.549Z,69.42
2023-06-04T05:14:22.569Z,68.80
2023-06-04T05:15:22.551Z,69.52
2023-06-04T05:16:22.544Z,69.69
2023-06-04T05:17:22.569Z,72.45
2023-06-04T05:18:22.472Z,74.46
2023-06-04T05:19:22.483Z,74.80
2023-06-04T05:20:22.492Z,74.90
2023-06-04T05:21:22.496Z,73.88
2023-06-04T05:22:22.420Z,73.03
2023-06-04T05:23:22.449Z,73.84
2023-06-04T05:24:22.440Z,72.65
2023-06-04T05:25:22.427Z,70.71
2023-06-04T05:26:22.419Z,70.98
2023-06-04T05:27:22.386Z,72.21
2023-06-04T05:28:22.396Z,70.68
2023-06-04T05:29:22.384Z,70.54
2023-06-04T05:30:22.357Z,71.46
2023-06-04T05:31:22.345Z,72.17
2023-06-04T05:32:22.369Z,71.43
2023-06-04T05:33:22.330Z,71.22
2023-06-04T05:34:22.339Z,71.33
2023-06-04T05:35:22.303Z,71.02
2023-06-04T05:36:22.271Z,69.25
2023-06-04T05:37:22.293Z,69.15
2023-06-04T05:38:22.330Z,69.42
2023-06-04T05:39:22.253Z,69.02
2023-06-04T05:40:22.277Z,68.51
2023-06-04T05:41:22.320Z,67.59
2023-06-04T05:42:22.233Z,67.76
2023-06-04T05:43:22.299Z,67.35
2023-06-04T05:44:22.246Z,67.02
2023-06-04T05:45:22.185Z,67.22
2023-06-04T05:46:22.166Z,66.61
2023-06-04T05:47:22.156Z,65.56
2023-06-04T05:48:22.189Z,65.66
2023-06-04T05:49:22.184Z,65.02
2023-06-04T05:50:22.180Z,65.46
2023-06-04T05:51:22.112Z,65.39
2023-06-04T05:52:22.140Z,65.25
2023-06-04T05:53:22.107Z,65.97
2023-06-04T05:54:22.154Z,65.43
2023-06-04T05:55:22.105Z,65.12
2023-06-04T05:56:22.127Z,65.33
2023-06-04T05:57:22.095Z,61.46
2023-06-04T05:58:22.086Z,59.53
2023-06-04T05:59:22.019Z,59.12
2023-06-04T06:00:21.998Z,58.58
2023-06-04T06:01:21.996Z,58.28
2023-06-04T06:02:22.069Z,58.99
2023-06-04T06:03:22.120Z,60.00
2023-06-04T06:04:22.038Z,58.58
2023-06-04T06:05:22.005Z,59.60
2023-06-04T06:06:22.040Z,59.77
2023-06-04T06:07:22.094Z,58.25
2023-06-04T06:08:21.977Z,57.95
2023-06-04T06:09:21.925Z,59.16
2023-06-04T06:10:21.934Z,59.47
2023-06-04T06:11:21.931Z,59.44
2023-06-04T06:12:21.885Z,58.53
2023-06-04T06:13:21.849Z,58.45
2023-06-04T06:14:21.890Z,58.94
2023-06-04T06:15:21.871Z,58.73
2023-06-04T06:16:21.970Z,59.34
2023-06-04T06:17:21.914Z,58.63
2023-06-04T06:18:21.827Z,58.42
2023-06-04T06:19:21.827Z,58.02
2023-06-04T06:20:21.806Z,57.92
2023-06-04T06:21:21.784Z,58.02
2023-06-04T06:22:21.817Z,58.53
2023-06-04T06:23:21.798Z,58.96
2023-06-04T06:24:21.757Z,58.12
2023-06-04T06:25:21.773Z,58.94
2023-06-04T06:26:21.711Z,59.14
2023-06-04T06:27:21.823Z,60.33
2023-06-04T06:28:21.746Z,59.62
2023-06-04T06:29:21.766Z,59.52
2023-06-04T06:30:21.658Z,59.69
2023-06-04T06:31:21.791Z,59.56
2023-06-04T06:32:21.718Z,59.16
2023-06-04T06:33:21.724Z,58.24
2023-06-04T06:34:21.641Z,57.10
2023-06-04T06:35:21.681Z,58.42
2023-06-04T06:36:21.638Z,58.14
2023-06-04T06:37:21.605Z,59.26
2023-06-04T06:38:21.616Z,59.33
2023-06-04T06:39:21.612Z,57.60
2023-06-04T06:40:21.587Z,57.50
2023-06-04T06:41:21.602Z,56.49
2023-06-04T06:42:21.565Z,57.07
2023-06-04T06:43:21.557Z,56.67
2023-06-04T06:44:21.582Z,56.44
2023-06-04T06:45:21.563Z,56.13
2023-06-04T06:46:21.566Z,56.44
2023-06-04T06:47:21.511Z,56.03
2023-06-04T06:48:21.562Z,56.51
2023-06-04T06:49:21.491Z,54.99
2023-06-04T06:50:21.454Z,55.60
2023-06-04T06:51:21.473Z,56.51
2023-06-04T06:52:21.494Z,56.51
2023-06-04T06:53:21.443Z,56.01
2023-06-04T06:54:21.444Z,55.60
2023-06-04T06:55:21.497Z,54.89
2023-06-04T06:56:21.414Z,55.77
2023-06-04T06:57:21.411Z,55.24
2023-06-04T06:58:21.460Z,55.35
2023-06-04T06:59:21.402Z,53.60
2023-06-04T07:00:21.373Z,52.99
2023-06-04T07:01:21.412Z,53.30
2023-06-04T07:02:21.454Z,53.90
2023-06-04T07:03:21.377Z,52.79
2023-06-04T07:04:21.360Z,53.50
2023-06-04T07:05:21.406Z,53.30
2023-06-04T07:06:21.373Z,51.68
2023-06-04T07:07:21.296Z,50.95
2023-06-04T07:08:21.332Z,50.84
2023-06-04T07:09:21.283Z,50.92
2023-06-04T07:10:21.323Z,51.40
2023-06-04T07:11:21.241Z,50.59
2023-06-04T07:12:21.310Z,49.69
2023-06-04T07:13:21.242Z,49.18
2023-06-04T07:14:21.226Z,49.69
2023-06-04T07:15:21.302Z,50.32
2023-06-04T07:16:21.380Z,50.09
2023-06-04T07:17:21.271Z,49.48
2023-06-04T07:18:21.202Z,49.28
2023-06-04T07:19:21.173Z,48.58
2023-06-04T07:20:21.178Z,48.65
2023-06-04T07:21:21.138Z,48.96
2023-06-04T07:22:21.158Z,48.65
2023-06-04T07:23:21.239Z,50.70
2023-06-04T07:24:21.100Z,50.47
2023-06-04T07:25:21.120Z,49.94
2023-06-04T07:26:21.119Z,48.33
2023-06-04T07:27:21.159Z,48.02
2023-06-04T07:28:21.102Z,48.93
2023-06-04T07:29:21.075Z,48.73
2023-06-04T07:30:21.131Z,49.94
2023-06-04T07:31:21.072Z,49.01
2023-06-04T07:32:21.109Z,47.86
2023-06-04T07:33:21.052Z,47.25
2023-06-04T07:34:21.003Z,46.95
2023-06-04T07:35:20.998Z,47.45
2023-06-04T07:36:21.074Z,48.26
2023-06-04T07:37:20.985Z,47.94
2023-06-04T07:38:20.957Z,47.51
2023-06-04T07:39:21.049Z,48.01
2023-06-04T07:40:20.964Z,48.82
2023-06-04T07:41:20.916Z,47.08
2023-06-04T07:42:20.992Z,45.86
2023-06-04T07:43:20.915Z,45.35
2023-06-04T07:44:20.923Z,45.95
2023-06-04T07:45:20.970Z,47.28
2023-06-04T07:46:20.950Z,46.68
2023-06-04T07:47:20.889Z,46.86
2023-06-04T07:48:20.865Z,45.45
2023-06-04T07:49:20.912Z,45.94
2023-06-04T07:50:20.832Z,45.01
2023-06-04T07:51:20.816Z,44.31
2023-06-04T07:52:20.946Z,44.38
2023-06-04T07:53:20.793Z,44.38
2023-06-04T07:54:20.764Z,43.48
2023-06-04T07:55:20.816Z,44.18
2023-06-04T07:56:20.787Z,44.36
2023-06-04T07:57:20.743Z,42.46
2023-06-04T07:58:20.771Z,42.66
2023-06-04T07:59:20.809Z,42.25
2023-06-04T08:00:20.714Z,42.83
2023-06-04T08:01:20.711Z,42.54
2023-06-04T08:02:20.842Z,42.61
2023-06-04T08:03:20.768Z,41.91
2023-06-04T08:04:20.783Z,42.72
2023-06-04T08:05:20.763Z,43.12
2023-06-04T08:06:20.695Z,43.34
2023-06-04T08:07:20.638Z,43.34
2023-06-04T08:08:20.684Z,42.52
2023-06-04T08:09:20.631Z,41.60
2023-06-04T08:10:20.623Z,40.89
2023-06-04T08:11:20.637Z,41.49
2023-06-04T08:12:20.605Z,41.49
2023-06-04T08:13:20.599Z,42.19
2023-06-04T08:14:20.552Z,41.67
2023-06-04T08:15:20.594Z,41.05
2023-06-04T08:16:20.622Z,41.25
2023-06-04T08:17:20.561Z,40.95
2023-06-04T08:18:20.559Z,41.35
2023-06-04T08:19:20.504Z,41.25
2023-06-04T08:20:20.525Z,41.09
2023-06-04T08:21:20.508Z,42.19
2023-06-04T08:22:20.505Z,41.39
2023-06-04T08:23:20.526Z,41.27
2023-06-04T08:24:20.508Z,41.07
2023-06-04T08:25:20.470Z,40.99
2023-06-04T08:26:20.485Z,40.97
2023-06-04T08:27:20.431Z,40.67
2023-06-04T08:28:20.470Z,40.67
2023-06-04T08:29:20.416Z,41.79
2023-06-04T08:30:20.392Z,41.38
2023-06-04T08:31:20.434Z,39.95
2023-06-04T08:32:20.389Z,39.05
2023-06-04T08:33:20.427Z,39.45
2023-06-04T08:34:20.345Z,39.43
2023-06-04T08:35:20.403Z,39.03
2023-06-04T08:36:20.349Z,38.61
2023-06-04T08:37:20.290Z,38.71
2023-06-04T08:38:20.443Z,39.59
2023-06-04T08:39:20.308Z,39.00
2023-06-04T08:40:20.329Z,39.07
2023-06-04T08:41:20.351Z,38.78
2023-06-04T08:42:20.305Z,38.29
2023-06-04T08:43:20.271Z,39.41
2023-06-04T08:44:20.358Z,39.73
2023-06-04T08:45:20.253Z,39.63
2023-06-04T08:46:20.259Z,39.07
2023-06-04T08:47:20.289Z,40.25
2023-06-04T08:48:20.218Z,39.23
2023-06-04T08:49:20.219Z,39.33
2023-06-04T08:50:20.201Z,39.63
2023-06-04T08:51:20.199Z,39.73
2023-06-04T08:52:20.184Z,39.31
2023-06-04T08:53:20.287Z,38.49
2023-06-04T08:54:20.154Z,38.56
2023-06-04T08:55:20.140Z,35.66
2023-06-04T08:56:20.163Z,35.94
2023-06-04T08:57:20.108Z,37.18
2023-06-04T08:58:20.107Z,36.58
2023-06-04T08:59:20.237Z,37.98
2023-06-04T09:00:20.244Z,38.29
2023-06-04T09:01:20.146Z,38.42
2023-06-04T09:02:20.090Z,38.61
2023-06-04T09:03:20.180Z,37.71
2023-06-04T09:04:20.117Z,36.98
2023-06-04T09:05:20.054Z,36.66
2023-06-04T09:06:19.993Z,37.16
2023-06-04T09:07:20.090Z,35.94
2023-06-04T09:08:20.028Z,35.94
2023-06-04T09:09:20.066Z,36.58
2023-06-04T09:10:20.069Z,37.88
2023-06-04T09:11:19.960Z,36.86
2023-06-04T09:12:19.972Z,35.26
2023-06-04T09:13:19.950Z,35.18
2023-06-04T09:14:19.897Z,33.78
2023-06-04T09:15:19.926Z,34.59
2023-06-04T09:16:19.992Z,35.49
2023-06-04T09:17:19.886Z,36.06
2023-06-04T09:18:19.910Z,35.60
2023-06-04T09:19:19.907Z,36.61
2023-06-04T09:20:19.953Z,36.60
2023-06-04T09:21:19.893Z,36.90
2023-06-04T09:22:19.855Z,35.98
2023-06-04T09:23:20.023Z,37.19
2023-06-04T09:24:19.836Z,35.56
2023-06-04T09:25:19.922Z,35.94
2023-06-04T09:26:19.830Z,35.44
2023-06-04T09:27:19.864Z,35.05
2023-06-04T09:28:19.877Z,35.53
2023-06-04T09:29:19.902Z,35.42
2023-06-04T09:30:19.748Z,35.23
2023-06-04T09:31:19.840Z,34.44
2023-06-04T09:32:19.759Z,34.63
2023-06-04T09:33:19.738Z,33.13
2023-06-04T09:34:19.769Z,32.82
2023-06-04T09:35:19.802Z,32.70
2023-06-04T09:36:19.672Z,34.30
2023-06-04T09:37:19.717Z,34.39
2023-06-04T09:38:19.719Z,34.28
2023-06-04T09:39:19.655Z,33.38
2023-06-04T09:40:19.726Z,32.77
2023-06-04T09:41:19.633Z,32.75
2023-06-04T09:42:19.653Z,30.86
2023-06-04T09:43:19.656Z,30.66
2023-06-04T09:44:19.615Z,30.88
2023-06-04T09:45:19.605Z,31.27
2023-06-04T09:46:19.670Z,30.77
2023-06-04T09:47:19.607Z,31.89
2023-06-04T09:48:19.657Z,32.60
2023-06-04T09:49:19.556Z,32.39
2023-06-04T09:50:19.519Z,31.57
2023-06-04T09:51:19.582Z,30.66
2023-06-04T09:52:19.533Z,30.36
2023-06-04T09:53:19.528Z,30.16
2023-06-04T09:54:19.491Z,30.27
2023-06-04T09:55:19.479Z,30.45
2023-06-04T09:56:19.515Z,29.85
2023-06-04T09:57:19.504Z,30.04
2023-06-04T09:58:19.523Z,28.93
2023-06-04T09:59:19.459Z,29.81
2023-06-04T10:00:19.449Z,28.90
2023-06-04T10:01:19.464Z,28.41
2023-06-04T10:02:19.445Z,28.29
2023-06-04T10:03:19.545Z,27.88
2023-06-04T10:04:19.389Z,27.28
2023-06-04T10:05:19.421Z,27.57
2023-06-04T10:06:19.455Z,27.88
2023-06-04T10:07:19.401Z,28.38
2023-06-04T10:08:19.392Z,27.98
2023-06-04T10:09:19.407Z,27.17
2023-06-04T10:10:19.340Z,27.87
2023-06-04T10:11:19.340Z,27.17
2023-06-04T10:12:19.345Z,27.75
2023-06-04T10:13:19.387Z,27.36
2023-06-04T10:14:19.333Z,27.84
2023-06-04T10:15:19.276Z,26.74
2023-06-04T10:16:32.774Z,26.84
2023-06-04T10:17:21.343Z,26.53
2023-06-04T10:18:19.342Z,27.21
2023-06-04T10:19:19.261Z,26.51
2023-06-04T10:20:19.341Z,27.50
2023-06-04T10:21:19.205Z,26.51
2023-06-04T10:22:19.303Z,26.42
2023-06-04T10:23:19.299Z,25.71
2023-06-04T10:24:19.179Z,25.42
2023-06-04T10:25:19.226Z,25.71
2023-06-04T10:26:19.199Z,25.71
2023-06-04T10:27:19.197Z,26.51
2023-06-04T10:28:19.147Z,24.83
2023-06-04T10:29:19.181Z,26.95
2023-06-04T10:30:19.203Z,26.55
2023-06-04T10:31:19.169Z,26.65
2023-06-04T10:32:19.131Z,26.14
2023-06-04T10:33:19.536Z,24.95
2023-06-04T10:34:20.106Z,25.23
2023-06-04T10:35:19.115Z,24.72
2023-06-04T10:36:19.147Z,24.22
2023-06-04T10:37:19.095Z,23.93
2023-06-04T10:38:19.096Z,23.82
2023-06-04T10:39:19.077Z,24.02
2023-06-04T10:40:19.069Z,23.91
2023-06-04T10:41:19.041Z,24.49
2023-06-04T10:42:19.074Z,24.40
2023-06-04T10:43:19.049Z,24.90
2023-06-04T10:44:18.991Z,24.81
2023-06-04T10:45:19.048Z,24.80
2023-06-04T10:46:19.034Z,26.09
2023-06-04T10:47:18.959Z,24.81
2023-06-04T10:48:19.017Z,24.60
2023-06-04T10:49:18.958Z,24.60
2023-06-04T10:50:19.746Z,23.40
2023-06-04T10:51:18.944Z,23.29
2023-06-04T10:52:18.932Z,23.69
2023-06-04T10:53:18.946Z,23.70
2023-06-04T10:54:18.916Z,23.40
2023-06-04T10:55:18.927Z,23.99
2023-06-04T10:56:18.940Z,24.79
2023-06-04T10:57:18.881Z,23.90
2023-06-04T10:58:18.911Z,24.68
2023-06-04T10:59:19.000Z,23.99
2023-06-04T11:00:18.867Z,23.30
2023-06-04T11:01:18.874Z,24.57
2023-06-04T11:02:18.930Z,23.87
2023-06-04T11:03:19.006Z,23.47
2023-06-04T11:04:18.933Z,23.57
2023-06-04T11:05:18.811Z,23.46
2023-06-04T11:06:18.764Z,23.26
2023-06-04T11:07:18.806Z,23.76
2023-06-04T11:08:18.783Z,24.46
2023-06-04T11:09:18.733Z,23.87
2023-06-04T11:10:18.830Z,23.85
2023-06-04T11:11:18.725Z,23.96
2023-06-04T11:12:18.738Z,23.66
2023-06-04T11:13:18.745Z,23.75
2023-06-04T11:14:18.718Z,24.86
2023-06-04T11:15:18.700Z,24.35
2023-06-04T11:16:18.772Z,24.45
2023-06-04T11:17:18.733Z,24.54
2023-06-04T11:18:18.683Z,24.43
2023-06-04T11:19:18.649Z,23.46
2023-06-04T11:20:19.262Z,24.24
2023-06-04T11:21:18.635Z,25.37
2023-06-04T11:22:18.702Z,25.27
2023-06-04T11:23:18.603Z,25.26
2023-06-04T11:24:18.579Z,24.97
2023-06-04T11:25:18.648Z,24.80
2023-06-04T11:26:18.569Z,26.38
2023-06-04T11:27:32.207Z,25.77
2023-06-04T11:28:20.634Z,25.37
2023-06-04T11:29:18.561Z,24.48
2023-06-04T11:30:18.537Z,24.66
2023-06-04T11:31:18.579Z,24.06
2023-06-04T11:32:18.533Z,25.56
2023-06-04T11:33:18.540Z,24.80
2023-06-04T11:34:18.542Z,25.98
2023-06-04T11:35:18.519Z,25.77
2023-06-04T11:36:18.497Z,24.67
2023-06-04T11:37:18.458Z,26.23
2023-06-04T11:38:18.459Z,25.14
2023-06-04T11:39:18.502Z,26.18
2023-06-04T11:40:18.483Z,26.82
2023-06-04T11:41:18.431Z,27.83
2023-06-04T11:42:18.429Z,27.43
2023-06-04T11:43:18.418Z,26.53
2023-06-04T11:44:18.415Z,26.12
2023-06-04T11:45:18.435Z,27.72
2023-06-04T11:46:18.382Z,28.63
2023-06-04T11:47:18.378Z,28.17
2023-06-04T11:48:18.416Z,27.47
2023-06-04T11:49:18.354Z,27.64
2023-06-04T11:50:18.338Z,27.06
2023-06-04T11:51:18.317Z,28.66
2023-06-04T11:52:18.360Z,30.18
2023-06-04T11:53:18.317Z,29.58
2023-06-04T11:54:18.295Z,29.78
2023-06-04T11:55:18.295Z,30.21
2023-06-04T11:56:18.330Z,30.89
2023-06-04T11:57:18.263Z,29.90
2023-06-04T11:58:18.296Z,30.94
2023-06-04T11:59:18.293Z,31.34
2023-06-04T12:00:18.251Z,31.94
2023-06-04T12:01:18.229Z,31.26
2023-06-04T12:02:18.261Z,31.06
2023-06-04T12:03:18.251Z,31.34
2023-06-04T12:04:18.180Z,31.02
2023-06-04T12:05:18.242Z,30.09
2023-06-04T12:06:18.217Z,29.85
2023-06-04T12:07:18.168Z,29.52
2023-06-04T12:08:18.179Z,27.43
2023-06-04T12:09:18.158Z,26.80
2023-06-04T12:10:18.131Z,27.87
2023-06-04T12:11:18.148Z,26.57
2023-06-04T12:12:18.150Z,27.08
2023-06-04T12:13:18.140Z,26.97
2023-06-04T12:14:18.107Z,27.26
2023-06-04T12:15:18.108Z,26.89
2023-06-04T12:16:18.122Z,26.39
2023-06-04T12:17:18.118Z,26.57
2023-06-04T12:18:18.089Z,25.96
2023-06-04T12:19:18.108Z,25.45
2023-06-04T12:20:18.015Z,24.93
2023-06-04T12:21:18.023Z,25.32
2023-06-04T12:22:18.064Z,25.62
2023-06-04T12:23:17.998Z,27.13
2023-06-04T12:24:18.018Z,28.45
2023-06-04T12:25:18.018Z,29.50
2023-06-04T12:26:18.020Z,29.82
2023-06-04T12:27:17.981Z,30.66
2023-06-04T12:28:17.974Z,32.64
2023-06-04T12:29:17.962Z,29.83
2023-06-04T12:30:17.923Z,30.32
2023-06-04T12:31:17.994Z,29.11
2023-06-04T12:32:17.956Z,30.00
2023-06-04T12:33:17.920Z,30.02
2023-06-04T12:34:18.787Z,30.29
2023-06-04T12:35:17.925Z,30.58
2023-06-04T12:36:17.897Z,30.41
2023-06-04T12:37:17.889Z,29.81
2023-06-04T12:38:17.880Z,29.79
2023-06-04T12:39:17.864Z,28.27
2023-06-04T12:40:17.840Z,28.03
2023-06-04T12:41:17.817Z,27.42
2023-06-04T12:42:17.858Z,26.71
2023-06-04T12:43:17.923Z,26.89
2023-06-04T12:44:17.792Z,28.69
2023-06-04T12:45:17.805Z,29.83
2023-06-04T12:46:17.822Z,29.85
2023-06-04T12:47:17.764Z,28.23
2023-06-04T12:48:17.807Z,28.51
2023-06-04T12:49:17.780Z,27.52
2023-06-04T12:50:18.508Z,28.03
2023-06-04T12:51:17.728Z,27.94
2023-06-04T12:52:17.751Z,28.55